Rickmers Dalian — V7FS3 — position and weather

sailwx.info

Track history (hours):
 
Tides and Currents Weather Stations Pressure Air Temp Water Temp Dewpoint Dewpoint Depression Visibility Wind Speed Wind Dir Waves Ship Positions

Rickmers Dalian

Last reported at 2016-Apr-25 22:26 UTC. Time now 2016-Apr-30 05:13 UTC.
Position N 31°25' E 032°19'.

Length 193 m; beam 27.8 m; draft 11.2 m.

Type: Ship. MMSI: 538090156.

Date/timePositionNaut miles runAvg speedWind from/ knotsBaromVisibWave heightAir tempDewpointWater temp
2016-Apr-25 22:26N 31°25' E 032°19'2 1.7
2016-Apr-25 21:32N 31°26' E 032°19'2 2.0
2016-Apr-25 20:34N 31°27' E 032°17'1515.1
2016-Apr-25 19:33N 31°38' E 032°05'1817.6
2016-Apr-25 18:33N 31°49' E 031°49'1918.0
2016-Apr-25 17:32N 31°60' E 031°31'3818.1
2016-Apr-25 15:28N 32°26' E 030°59'1718.6
2016-Apr-25 14:33N 32°37' E 030°44'27618.9
2016-Apr-25 00:00N 36°06' E 027°06'9019.3 270 / 181005.010.8 2.018.014.619.0
2016-Apr-24 19:22N 37°13' E 025°52'1519.2
2016-Apr-24 18:33N 37°28' E 025°48'23713.1
2016-Apr-24 00:25N 40°41' E 028°46'1517.1
2016-Apr-23 23:33N 40°43' E 029°05'1514.5
2016-Apr-23 22:32N 40°45' E 029°25'10 0.4
2016-Apr-22 20:22N 40°44' E 029°38'911.6
2016-Apr-22 19:33N 40°44' E 029°26'9 8.8
2016-Apr-22 18:33N 40°42' E 029°14'1211.9
2016-Apr-22 17:33N 40°41' E 028°58'14910.5
2016-Apr-22 03:23N 39°52' E 025°54'12213.8
2016-Apr-21 18:29N 38°03' E 024°43'1213.0
2016-Apr-21 17:33N 37°52' E 024°35'1414.1
2016-Apr-21 16:34N 37°45' E 024°20'66613.7
2016-Apr-19 16:03N 44°48' E 012°56'917.2
2016-Apr-19 15:33N 44°56' E 012°50'1616.5
2016-Apr-19 14:34N 45°09' E 012°36'1615.5
2016-Apr-19 13:33N 45°20' E 012°20'7 7.1
2016-Apr-19 12:33N 45°26' E 012°16'1 1.3
2016-Apr-19 11:28N 45°28' E 012°15'0 0.0
2016-Apr-19 10:31N 45°28' E 012°15'0 0.0
2016-Apr-19 09:25N 45°28' E 012°15'0 0.0
2016-Apr-19 08:31N 45°28' E 012°15'0 0.0
2016-Apr-19 07:31N 45°28' E 012°15'0 0.0
2016-Apr-19 06:28N 45°28' E 012°15'0 0.0
2016-Apr-19 05:31N 45°28' E 012°15'0 0.0
2016-Apr-19 04:31N 45°28' E 012°15'0 0.0
2016-Apr-19 03:31N 45°28' E 012°15'0 0.0
2016-Apr-19 02:31N 45°28' E 012°15'0 0.0
2016-Apr-19 01:31N 45°28' E 012°15'0 0.0
2016-Apr-19 00:31N 45°28' E 012°15'0 0.0
2016-Apr-18 23:31N 45°28' E 012°15'0 0.0
2016-Apr-18 22:31N 45°28' E 012°15'0 0.0
2016-Apr-18 21:31N 45°28' E 012°15'0 0.0
2016-Apr-18 20:28N 45°28' E 012°15'0 0.0
2016-Apr-18 18:31N 45°28' E 012°15'0 0.0
2016-Apr-18 17:28N 45°28' E 012°15'0 0.0
2016-Apr-18 16:13N 45°28' E 012°15'0 0.0
2016-Apr-18 15:25N 45°28' E 012°15'0 0.0
2016-Apr-18 14:31N 45°28' E 012°15'0 0.0
2016-Apr-18 13:28N 45°28' E 012°15'0 0.0
2016-Apr-18 12:31N 45°28' E 012°15'0 0.0
2016-Apr-18 10:13N 45°28' E 012°15'0 0.0
2016-Apr-18 09:31N 45°28' E 012°15'0 0.0
2016-Apr-18 08:31N 45°28' E 012°15'0 0.0
2016-Apr-18 07:28N 45°28' E 012°15'0 0.0
2016-Apr-18 06:33N 45°28' E 012°15'6 6.2
2016-Apr-18 05:33N 45°21' E 012°15'1111.2
2016-Apr-18 04:33N 45°17' E 012°30'7 7.3
2016-Apr-18 03:33N 45°13' E 012°39'6 6.0
2016-Apr-18 02:33N 45°10' E 012°46'9 8.4
2016-Apr-18 01:30N 45°06' E 012°57'10 9.8
2016-Apr-18 00:27N 45°01' E 013°10'6 7.2
2016-Apr-17 23:34N 44°55' E 013°11'1 0.7
2016-Apr-17 22:33N 44°55' E 013°11'1 0.9
2016-Apr-17 21:33N 44°55' E 013°12'1 0.8
2016-Apr-17 20:33N 44°55' E 013°13'0 0.2
2016-Apr-17 19:33N 44°55' E 013°13'0 0.3
2016-Apr-17 18:28N 44°54' E 013°13'3 2.8
2016-Apr-17 17:33N 44°55' E 013°16'9 9.1
2016-Apr-17 16:33N 44°53' E 013°29'1111.5
2016-Apr-17 15:33N 44°46' E 013°41'10 9.4
2016-Apr-17 14:29N 44°40' E 013°53'  
Track history (hours):
 
Tides and Currents Weather Stations Pressure Air Temp Water Temp Dewpoint Dewpoint Depression Visibility Wind Speed Wind Dir Waves Ship Positions

Rickmers Dalian

Last reported at 2016-Apr-25 22:26 UTC. Time now 2016-Apr-30 05:13 UTC.
Position N 31°25' E 032°19'.

Length 193 m; beam 27.8 m; draft 11.2 m.

Type: Ship. MMSI: 538090156.

Date/timePositionNaut miles runAvg speedWind from/ knotsBaromVisibWave heightAir tempDewpointWater temp
2016-Apr-25 22:26N 31°25' E 032°19'2 1.7
2016-Apr-25 21:32N 31°26' E 032°19'2 2.0
2016-Apr-25 20:34N 31°27' E 032°17'1515.1
2016-Apr-25 19:33N 31°38' E 032°05'1817.6
2016-Apr-25 18:33N 31°49' E 031°49'1918.0
2016-Apr-25 17:32N 31°60' E 031°31'3818.1
2016-Apr-25 15:28N 32°26' E 030°59'1718.6
2016-Apr-25 14:33N 32°37' E 030°44'27618.9
2016-Apr-25 00:00N 36°06' E 027°06'9019.3 270 / 181005.010.8 2.018.014.619.0
2016-Apr-24 19:22N 37°13' E 025°52'1519.2
2016-Apr-24 18:33N 37°28' E 025°48'23713.1
2016-Apr-24 00:25N 40°41' E 028°46'1517.1
2016-Apr-23 23:33N 40°43' E 029°05'1514.5
2016-Apr-23 22:32N 40°45' E 029°25'10 0.4
2016-Apr-22 20:22N 40°44' E 029°38'911.6
2016-Apr-22 19:33N 40°44' E 029°26'9 8.8
2016-Apr-22 18:33N 40°42' E 029°14'1211.9
2016-Apr-22 17:33N 40°41' E 028°58'14910.5
2016-Apr-22 03:23N 39°52' E 025°54'12213.8
2016-Apr-21 18:29N 38°03' E 024°43'1213.0
2016-Apr-21 17:33N 37°52' E 024°35'1414.1
2016-Apr-21 16:34N 37°45' E 024°20'66613.7
2016-Apr-19 16:03N 44°48' E 012°56'917.2
2016-Apr-19 15:33N 44°56' E 012°50'1616.5
2016-Apr-19 14:34N 45°09' E 012°36'1615.5
2016-Apr-19 13:33N 45°20' E 012°20'7 7.1
2016-Apr-19 12:33N 45°26' E 012°16'1 1.3
2016-Apr-19 11:28N 45°28' E 012°15'0 0.0
2016-Apr-19 10:31N 45°28' E 012°15'0 0.0
2016-Apr-19 09:25N 45°28' E 012°15'0 0.0
2016-Apr-19 08:31N 45°28' E 012°15'0 0.0
2016-Apr-19 07:31N 45°28' E 012°15'0 0.0
2016-Apr-19 06:28N 45°28' E 012°15'0 0.0
2016-Apr-19 05:31N 45°28' E 012°15'0 0.0
2016-Apr-19 04:31N 45°28' E 012°15'0 0.0
2016-Apr-19 03:31N 45°28' E 012°15'0 0.0
2016-Apr-19 02:31N 45°28' E 012°15'0 0.0
2016-Apr-19 01:31N 45°28' E 012°15'0 0.0
2016-Apr-19 00:31N 45°28' E 012°15'0 0.0
2016-Apr-18 23:31N 45°28' E 012°15'0 0.0
2016-Apr-18 22:31N 45°28' E 012°15'0 0.0
2016-Apr-18 21:31N 45°28' E 012°15'0 0.0
2016-Apr-18 20:28N 45°28' E 012°15'0 0.0
2016-Apr-18 18:31N 45°28' E 012°15'0 0.0
2016-Apr-18 17:28N 45°28' E 012°15'0 0.0
2016-Apr-18 16:13N 45°28' E 012°15'0 0.0
2016-Apr-18 15:25N 45°28' E 012°15'0 0.0
2016-Apr-18 14:31N 45°28' E 012°15'0 0.0
2016-Apr-18 13:28N 45°28' E 012°15'0 0.0
2016-Apr-18 12:31N 45°28' E 012°15'0 0.0
2016-Apr-18 10:13N 45°28' E 012°15'0 0.0
2016-Apr-18 09:31N 45°28' E 012°15'0 0.0
2016-Apr-18 08:31N 45°28' E 012°15'0 0.0
2016-Apr-18 07:28N 45°28' E 012°15'0 0.0
2016-Apr-18 06:33N 45°28' E 012°15'6 6.2
2016-Apr-18 05:33N 45°21' E 012°15'1111.2
2016-Apr-18 04:33N 45°17' E 012°30'7 7.3
2016-Apr-18 03:33N 45°13' E 012°39'6 6.0
2016-Apr-18 02:33N 45°10' E 012°46'9 8.4
2016-Apr-18 01:30N 45°06' E 012°57'10 9.8
2016-Apr-18 00:27N 45°01' E 013°10'6 7.2
2016-Apr-17 23:34N 44°55' E 013°11'1 0.7
2016-Apr-17 22:33N 44°55' E 013°11'1 0.9
2016-Apr-17 21:33N 44°55' E 013°12'1 0.8
2016-Apr-17 20:33N 44°55' E 013°13'0 0.2
2016-Apr-17 19:33N 44°55' E 013°13'0 0.3
2016-Apr-17 18:28N 44°54' E 013°13'3 2.8
2016-Apr-17 17:33N 44°55' E 013°16'9 9.1
2016-Apr-17 16:33N 44°53' E 013°29'1111.5
2016-Apr-17 15:33N 44°46' E 013°41'10 9.4
2016-Apr-17 14:29N 44°40' E 013°53'  

Dump ship's entire track history